Fort Worth - NOAA's Hourly Summary for Monday, May 14, 2018
Hour Temp
(f)
RH
(%)
Solar Rad.
(MJ/m2)
Rainfall
(in)
Wind
(mph)
5/14/2018 12:00 AM 79 64 0 0 6.46
5/14/2018 1:00 AM 78 67 0 0 6.45
5/14/2018 2:00 AM 77 71 0 0 4.5
5/14/2018 3:00 AM 76 74 0 0 4.22
5/14/2018 4:00 AM 75 77 0 0 4.43
5/14/2018 5:00 AM 74 79 0 0 4.82
5/14/2018 6:00 AM 73 83 0.01 0 4.57
5/14/2018 7:00 AM 74 81 0.31 0 4.37
5/14/2018 8:00 AM 76 75 0.84 0 6.51
5/14/2018 9:00 AM 79 70 1.41 0 7.2
5/14/2018 10:00 AM 81 64 2.08 0 8.01
5/14/2018 11:00 AM 83 61 2.47 0 9.14
5/14/2018 12:00 PM 85 56 2.65 0 7.58
5/14/2018 1:00 PM 86 54 2.62 0 8.41
5/14/2018 2:00 PM 88 52 2.47 0 6.3
5/14/2018 3:00 PM 87 52 1.36 0 6.87
5/14/2018 4:00 PM 87 51 1.56 0 7.87
5/14/2018 5:00 PM 88 49 1.71 0 7.97
5/14/2018 6:00 PM 87 50 0.5 0 6.98
5/14/2018 7:00 PM 85 52 0.17 0 7.73
5/14/2018 8:00 PM 84 54 0.03 0 8.34
5/14/2018 9:00 PM 83 56 0 0 6.67
5/14/2018 10:00 PM 81 58 0 0 5.43
5/14/2018 11:00 PM 80 61 0 0 5.36
Data Summary 81 62 20.19 0.00 6.51